Time;durP1;ratioP1;P1;durP2;ratioP2;P2;SDS_P1;SDS_P2;PMS_P1;PMS_P2;Temp;Humidity;BMP_temperature;BMP_pressure;BME280_temperature;BME280_humidity;BME280_pressure;Samples;Min_cycle;Max_cycle;Signal;HPM_P1;HPM_P2
2021/11/08 00:00:28;;;;;;;32.10;20.85;;;;;;;17.20;54.74;100557.16;1726792;81;21109;-67
2021/11/08 00:02:52;;;;;;;33.63;21.57;;;;;;;17.01;54.80;100535.80;1695756;83;20864;-67
2021/11/08 00:05:23;;;;;;;31.15;21.68;;;;;;;17.20;54.65;100539.23;1727674;82;20835;-67
2021/11/08 00:07:57;;;;;;;31.33;20.60;;;;;;;14.55;69.11;100558.47;1695413;84;20875;-68
2021/11/08 00:10:27;;;;;;;34.60;23.50;;;;;;;16.16;62.24;100557.30;1727967;82;21052;-68
2021/11/08 00:12:48;;;;;;;36.45;22.95;;;;;;;16.37;59.79;100548.78;1723835;82;21040;-69
2021/11/08 00:15:17;;;;;;;33.83;22.07;;;;;;;16.32;59.54;100542.02;1695312;83;21079;-69
2021/11/08 00:18:01;;;;;;;32.13;22.57;;;;;;;16.29;59.27;100540.64;1728704;82;20988;-70
2021/11/08 00:20:27;;;;;;;31.33;20.87;;;;;;;16.44;59.04;100533.72;1727833;82;21767;-67
2021/11/08 00:22:50;;;;;;;32.58;22.77;;;;;;;16.26;59.72;100530.02;1724344;82;21674;-67
2021/11/08 00:25:18;;;;;;;31.77;21.45;;;;;;;16.29;59.41;100521.71;1721299;82;21587;-70
2021/11/08 00:27:46;;;;;;;35.73;23.30;;;;;;;16.38;58.68;100524.87;1696284;83;20983;-71
2021/11/08 00:30:14;;;;;;;29.57;21.13;;;;;;;16.50;58.18;100514.45;1725386;82;21277;-70
2021/11/08 00:32:42;;;;;;;31.57;22.93;;;;;;;16.74;56.84;100525.52;1697722;84;21964;-68
2021/11/08 00:35:09;;;;;;;31.97;23.23;;;;;;;16.29;57.86;100521.71;1692889;84;21073;-68
2021/11/08 00:37:36;;;;;;;39.07;26.27;;;;;;;14.43;67.82;100530.67;1701173;84;21640;-67
2021/11/08 00:40:06;;;;;;;33.57;22.23;;;;;;;14.75;73.18;100521.22;1723961;81;21201;-67
2021/11/08 00:42:33;;;;;;;32.53;22.37;;;;;;;14.64;74.68;100511.84;1670988;85;21326;-67
2021/11/08 00:45:01;;;;;;;32.80;22.80;;;;;;;14.74;75.09;100511.73;1670340;83;21094;-70
2021/11/08 00:47:29;;;;;;;35.20;23.12;;;;;;;14.49;78.07;100493.66;1694117;83;20992;-68
2021/11/08 00:49:56;;;;;;;35.60;24.00;;;;;;;14.75;76.35;100494.98;1727162;82;21063;-70
2021/11/08 00:52:24;;;;;;;32.67;22.22;;;;;;;14.58;77.38;100488.05;1670482;85;20928;-68
2021/11/08 00:54:51;;;;;;;28.02;19.85;;;;;;;14.54;79.14;100483.39;1734901;82;20999;-68
2021/11/08 00:57:21;;;;;;;30.30;21.73;;;;;;;14.38;83.17;100475.91;1732974;82;21207;-68
2021/11/08 00:59:47;;;;;;;30.32;21.77;;;;;;;14.59;82.67;100478.36;1701911;83;21005;-68
2021/11/08 01:02:15;;;;;;;32.17;22.17;;;;;;;14.57;82.51;100475.92;1724211;82;21027;-69
2021/11/08 01:04:42;;;;;;;31.35;21.42;;;;;;;14.90;78.51;100476.38;1736237;81;21039;-68
2021/11/08 01:07:10;;;;;;;33.38;23.02;;;;;;;15.16;76.58;100468.13;1734907;82;21048;-70
2021/11/08 01:09:37;;;;;;;35.63;23.50;;;;;;;15.15;75.54;100469.92;1703579;84;22410;-67
2021/11/08 01:12:06;;;;;;;40.15;26.80;;;;;;;14.92;76.99;100472.22;1735476;81;21098;-69
2021/11/08 01:14:33;;;;;;;34.43;23.42;;;;;;;15.15;74.86;100462.05;1703364;84;20911;-67
2021/11/08 01:16:59;;;;;;;35.95;23.65;;;;;;;15.37;72.22;100457.83;1735274;82;21529;-70
2021/11/08 01:19:27;;;;;;;31.10;22.87;;;;;;;15.53;70.71;100454.22;1703069;84;21536;-68
2021/11/08 01:22:04;;;;;;;33.02;23.47;;;;;;;15.63;68.93;100451.12;1732742;82;21633;-68
2021/11/08 01:24:24;;;;;;;33.23;22.48;;;;;;;15.60;68.30;100447.59;1733170;82;21063;-69
2021/11/08 01:26:51;;;;;;;33.25;23.65;;;;;;;15.71;66.89;100454.03;1703442;84;21096;-68
2021/11/08 01:29:18;;;;;;;32.73;21.77;;;;;;;15.72;67.42;100453.01;1702606;83;21112;-69
2021/11/08 01:31:45;;;;;;;34.25;23.57;;;;;;;15.90;66.35;100452.29;1734133;80;21500;-68
2021/11/08 01:34:12;;;;;;;34.03;24.10;;;;;;;15.95;64.80;100449.34;1702728;84;21149;-68
2021/11/08 01:36:41;;;;;;;28.83;20.80;;;;;;;15.78;64.85;100445.60;1734630;82;21517;-72
2021/11/08 01:39:21;;;;;;;33.07;21.83;;;;;;;15.76;65.59;100448.97;1735688;82;21027;-68
2021/11/08 01:41:41;;;;;;;34.15;22.07;;;;;;;15.96;65.17;100448.83;1733771;82;21506;-70
2021/11/08 01:44:08;;;;;;;32.67;22.10;;;;;;;15.91;65.18;100449.47;1703701;84;21089;-69
2021/11/08 01:46:34;;;;;;;33.70;21.17;;;;;;;15.89;65.75;100451.49;1735825;82;22230;-69
2021/11/08 01:49:01;;;;;;;31.45;21.30;;;;;;;16.25;63.46;100449.50;1702674;84;21002;-70
2021/11/08 01:51:27;;;;;;;31.02;21.85;;;;;;;16.46;61.43;100450.13;1735289;82;21067;-69
2021/11/08 01:53:55;;;;;;;29.98;21.40;;;;;;;16.45;61.29;100453.78;1736775;82;21589;-70
2021/11/08 01:56:23;;;;;;;28.95;21.52;;;;;;;16.47;60.71;100445.95;1735652;82;21004;-70
2021/11/08 01:58:49;;;;;;;29.98;20.55;;;;;;;16.47;60.55;100445.95;1733735;82;22722;-70
2021/11/08 02:01:16;;;;;;;28.32;19.95;;;;;;;16.59;60.02;100438.14;1735333;82;20987;-70
2021/11/08 02:03:43;;;;;;;28.17;19.75;;;;;;;16.63;59.73;100430.61;1736569;82;20940;-70
2021/11/08 02:06:10;;;;;;;24.37;18.57;;;;;;;16.73;59.05;100433.06;1736879;82;20944;-70
2021/11/08 02:08:38;;;;;;;29.70;19.07;;;;;;;16.92;57.98;100430.44;1735173;82;21054;-69
2021/11/08 02:11:06;;;;;;;31.65;19.35;;;;;;;17.10;56.78;100422.52;1735235;82;21085;-71
2021/11/08 02:13:33;;;;;;;27.00;18.37;;;;;;;17.05;56.70;100422.88;1734343;82;20905;-69
2021/11/08 02:16:01;;;;;;;28.10;18.62;;;;;;;17.26;56.03;100418.47;1735365;82;21034;-69
2021/11/08 02:18:29;;;;;;;27.73;19.20;;;;;;;17.26;56.05;100421.10;1736846;82;20900;-70
2021/11/08 02:20:56;;;;;;;27.73;18.27;;;;;;;17.34;55.73;100427.89;1703267;84;20994;-70
2021/11/08 02:23:24;;;;;;;25.27;18.23;;;;;;;17.31;55.44;100433.61;1736592;82;21834;-71
2021/11/08 02:25:54;;;;;;;30.23;21.07;;;;;;;17.49;55.39;100434.36;1702097;84;21337;-72
2021/11/08 02:28:20;;;;;;;27.93;19.27;;;;;;;17.24;55.50;100426.61;1703764;83;20992;-69
2021/11/08 02:30:52;;;;;;;28.90;19.20;;;;;;;17.07;56.89;100420.33;1736473;82;21003;-69
2021/11/08 02:33:18;;;;;;;27.52;18.70;;;;;;;17.45;56.25;100415.28;1727437;82;21061;-70
2021/11/08 02:35:45;;;;;;;28.07;18.90;;;;;;;17.31;56.30;100419.91;1699536;84;22318;-70
2021/11/08 02:38:24;;;;;;;25.75;18.30;;;;;;;17.36;56.85;100426.66;1729591;82;21012;-70
2021/11/08 02:40:53;;;;;;;24.52;18.15;;;;;;;17.31;56.59;100421.75;1731438;82;20978;-70
2021/11/08 02:43:21;;;;;;;26.52;18.10;;;;;;;17.16;58.04;100413.75;1724955;82;21132;-70
2021/11/08 02:45:52;;;;;;;28.87;18.85;;;;;;;17.21;58.13;100404.66;1699037;84;21151;-70
2021/11/08 02:48:17;;;;;;;28.25;19.00;;;;;;;17.32;58.08;100398.34;1729508;82;21164;-69
2021/11/08 02:50:44;;;;;;;22.90;16.57;;;;;;;17.57;56.82;100417.42;1731217;82;20983;-68
2021/11/08 02:53:15;;;;;;;24.45;17.73;;;;;;;17.66;56.48;100427.95;1726932;82;21294;-69
2021/11/08 02:55:41;;;;;;;23.43;16.60;;;;;;;17.44;56.80;100425.02;1729726;82;20987;-69
2021/11/08 02:58:07;;;;;;;27.82;18.10;;;;;;;17.45;57.16;100427.13;1725480;82;21589;-69
2021/11/08 03:00:35;;;;;;;25.97;17.25;;;;;;;17.10;58.49;100417.26;1724005;82;21147;-69
2021/11/08 03:03:02;;;;;;;23.38;16.15;;;;;;;17.08;60.78;100417.98;1725981;82;20940;-68
2021/11/08 03:05:34;;;;;;;23.10;15.70;;;;;;;17.15;60.13;100412.12;1671307;84;21130;-71
2021/11/08 03:07:58;;;;;;;27.80;17.97;;;;;;;17.58;58.01;100409.83;1669950;85;21079;-71
2021/11/08 03:10:26;;;;;;;25.73;18.07;;;;;;;17.89;57.56;100406.66;1695806;84;21582;-71
2021/11/08 03:12:54;;;;;;;25.70;17.30;;;;;;;17.38;58.27;100414.05;1727917;82;21242;-72
2021/11/08 03:15:47;;;;;;;24.90;17.60;;;;;;;17.16;59.80;100419.02;1727108;82;21199;-69
2021/11/08 03:18:07;;;;;;;23.07;17.35;;;;;;;17.21;59.49;100407.29;1726996;82;21784;-69
2021/11/08 03:20:33;;;;;;;23.73;17.80;;;;;;;17.60;58.64;100409.08;1671717;85;21008;-70
2021/11/08 03:23:04;;;;;;;22.90;16.93;;;;;;;17.47;58.36;100404.81;1672512;83;21698;-72
2021/11/08 03:28:00;;;;;;;23.25;17.15;;;;;;;17.46;58.94;100393.16;1727180;82;21216;-72
2021/11/08 03:30:36;;;;;;;27.58;18.05;;;;;;;17.39;59.15;100395.91;1670231;85;20977;-70
2021/11/08 03:32:58;;;;;;;25.27;17.77;;;;;;;17.25;60.55;100391.33;1669077;83;21502;-71
2021/11/08 03:35:27;;;;;;;22.17;16.32;;;;;;;17.36;59.97;100401.62;1693408;84;22700;-70
2021/11/08 03:37:55;;;;;;;21.65;15.13;;;;;;;17.57;59.75;100400.30;1728528;82;21162;-72
2021/11/08 03:40:29;;;;;;;25.32;16.87;;;;;;;17.55;59.28;100401.05;1726671;82;20978;-71
2021/11/08 03:42:56;;;;;;;21.97;16.80;;;;;;;17.36;59.64;100394.23;1694606;84;21487;-71
2021/11/08 03:45:25;;;;;;;24.17;17.80;;;;;;;17.37;60.08;100385.30;1668301;85;21285;-71
2021/11/08 03:47:53;;;;;;;23.97;17.73;;;;;;;17.37;60.67;100373.44;1710354;82;21391;-71
2021/11/08 03:50:20;;;;;;;23.77;17.00;;;;;;;17.71;59.04;100372.70;1704347;84;21351;-71
2021/11/08 03:52:47;;;;;;;22.97;16.27;;;;;;;18.05;57.26;100384.08;1711105;82;21426;-70
2021/11/08 03:55:14;;;;;;;23.97;17.07;;;;;;;18.12;56.34;100376.33;1701284;84;21321;-70
2021/11/08 03:57:41;;;;;;;26.87;18.17;;;;;;;18.18;55.76;100371.47;1737142;82;22537;-71
2021/11/08 04:00:28;;;;;;;24.00;17.03;;;;;;;18.04;55.81;100375.87;1733344;81;21628;-70
2021/11/08 04:02:56;;;;;;;25.27;17.97;;;;;;;18.10;55.76;100371.79;1677807;82;21720;-71
2021/11/08 04:05:23;;;;;;;26.10;19.27;;;;;;;18.07;55.85;100370.95;1672243;83;21639;-70
2021/11/08 04:07:51;;;;;;;24.03;18.47;;;;;;;18.14;55.80;100375.57;1671520;83;21228;-70
2021/11/08 04:10:18;;;;;;;24.45;17.32;;;;;;;18.13;55.46;100374.49;1663087;84;21294;-71
2021/11/08 04:12:46;;;;;;;28.43;18.30;;;;;;;18.22;55.47;100384.48;1705734;82;21015;-71
2021/11/08 04:15:15;;;;;;;26.03;17.57;;;;;;;18.00;56.21;100382.13;1704130;82;22027;-72
2021/11/08 04:17:44;;;;;;;22.67;17.60;;;;;;;18.21;55.68;100376.26;1708198;82;21232;-72
2021/11/08 04:20:21;;;;;;;23.77;16.57;;;;;;;18.18;55.82;100368.00;1707470;82;21386;-71
2021/11/08 04:22:50;;;;;;;20.73;15.37;;;;;;;17.94;57.26;100365.89;1706025;82;21744;-71
2021/11/08 04:25:19;;;;;;;25.60;17.53;;;;;;;18.08;57.23;100370.44;1707367;82;21129;-72
2021/11/08 04:27:47;;;;;;;21.47;16.93;;;;;;;18.10;57.13;100367.03;1705656;82;21183;-70
2021/11/08 04:30:14;;;;;;;20.83;15.83;;;;;;;17.99;57.79;100360.72;1706836;82;21125;-72
2021/11/08 04:33:02;;;;;;;24.53;15.43;;;;;;;18.04;58.16;100367.45;1707580;82;21765;-72
2021/11/08 04:35:20;;;;;;;21.47;15.57;;;;;;;18.10;58.36;100362.55;1701560;82;21183;-71
2021/11/08 04:40:30;;;;;;;22.97;16.70;;;;;;;17.99;59.76;100361.55;1703149;82;21170;-70
2021/11/08 04:42:59;;;;;;;23.00;16.40;;;;;;;18.16;59.76;100362.97;1702232;82;21251;-71
2021/11/08 04:50:46;;;;;;;22.10;16.27;;;;;;;18.50;58.03;100363.16;1690855;84;21162;-72
2021/11/08 05:23:57;;;;;;;20.27;14.90;;;;;;;17.93;66.23;100347.15;1702619;82;21333;-71
2021/11/08 05:29:53;;;;;;;22.17;16.57;;;;;;;17.94;66.41;100347.42;1700864;82;21288;-72
2021/11/08 05:31:10;;;;;;;19.83;14.83;;;;;;;17.97;65.83;100348.30;1701187;82;21265;-70
2021/11/08 05:33:37;;;;;;;22.07;14.37;;;;;;;18.14;64.01;100354.98;1703233;82;21146;-71
2021/11/08 05:36:04;;;;;;;20.23;15.20;;;;;;;18.35;62.25;100354.92;1700658;82;21175;-71
2021/11/08 05:38:30;;;;;;;19.17;14.53;;;;;;;18.18;62.83;100354.81;1705160;82;21343;-71
2021/11/08 05:40:57;;;;;;;18.57;13.97;;;;;;;18.43;61.76;100357.20;1706156;82;21181;-71
2021/11/08 05:43:23;;;;;;;18.63;13.43;;;;;;;18.57;60.56;100351.96;1705263;82;21239;-72
2021/11/08 05:45:50;;;;;;;20.53;15.27;;;;;;;18.63;59.96;100347.05;1703038;82;21111;-72
2021/11/08 05:48:16;;;;;;;19.37;14.80;;;;;;;18.68;59.83;100336.61;1663078;83;21810;-70
2021/11/08 05:50:43;;;;;;;19.37;14.67;;;;;;;18.53;60.11;100338.95;1663249;85;21296;-69
2021/11/08 05:53:12;;;;;;;20.80;15.77;;;;;;;18.64;60.01;100342.08;1657207;85;21384;-69
2021/11/08 05:55:46;;;;;;;19.10;14.40;;;;;;;18.46;60.98;100344.34;1661150;85;21509;-71
2021/11/08 05:58:40;;;;;;;22.70;16.97;;;;;;;17.93;65.07;100335.28;1669897;83;21181;-71
2021/11/08 06:50:05;;;;;;;18.77;14.53;;;;;;;15.88;100.00;100285.59;1659245;85;21388;-68
2021/11/08 06:52:33;;;;;;;19.63;15.00;;;;;;;15.83;100.00;100281.98;1658405;85;21384;-67
2021/11/08 06:55:03;;;;;;;19.17;14.60;;;;;;;15.62;100.00;100287.91;1701633;82;21269;-66
2021/11/08 06:57:33;;;;;;;17.80;14.07;;;;;;;15.89;100.00;100279.82;1708792;82;21201;-72
2021/11/08 07:00:00;;;;;;;17.37;13.95;;;;;;;15.32;100.00;100264.11;1706991;82;21250;-65
2021/11/08 07:02:26;;;;;;;20.00;15.37;;;;;;;15.78;100.00;100257.16;1712120;82;21152;-66
2021/11/08 07:04:53;;;;;;;19.80;15.47;;;;;;;15.83;100.00;100253.08;1714863;82;21295;-66
2021/11/08 07:07:20;;;;;;;18.27;14.80;;;;;;;15.89;100.00;100253.53;1715899;81;21148;-67
2021/11/08 07:09:48;;;;;;;18.60;14.67;;;;;;;16.45;100.00;100248.55;1715896;81;21266;-67
2021/11/08 07:12:14;;;;;;;19.93;16.47;;;;;;;16.44;100.00;100247.76;1677872;83;21978;-67
2021/11/08 07:14:41;;;;;;;19.67;16.33;;;;;;;16.46;100.00;100244.37;1682349;83;22020;-67
2021/11/08 07:17:07;;;;;;;17.90;14.33;;;;;;;16.45;100.00;100245.41;1688452;83;21291;-67
2021/11/08 07:19:34;;;;;;;18.43;14.07;;;;;;;16.58;100.00;100244.42;1682782;83;21309;-68
2021/11/08 07:22:00;;;;;;;18.90;14.33;;;;;;;16.43;100.00;100245.33;1683149;83;21107;-65
2021/11/08 07:24:27;;;;;;;18.37;15.07;;;;;;;16.63;100.00;100248.53;1682136;83;21865;-71
2021/11/08 07:26:53;;;;;;;19.63;16.03;;;;;;;16.60;100.00;100246.34;1682469;84;21414;-64
2021/11/08 07:29:22;;;;;;;17.53;14.37;;;;;;;16.17;100.00;100241.98;1714800;81;21202;-64
2021/11/08 07:31:48;;;;;;;21.63;16.70;;;;;;;16.43;100.00;100229.03;1715216;82;21303;-75
2021/11/08 07:34:15;;;;;;;21.87;16.93;;;;;;;16.82;100.00;100235.33;1713643;81;21258;-63
2021/11/08 07:36:41;;;;;;;19.67;15.00;;;;;;;16.45;100.00;100230.94;1713803;82;21492;-66
2021/11/08 07:39:08;;;;;;;19.53;16.17;;;;;;;16.47;100.00;100226.76;1714288;81;21280;-67
2021/11/08 07:41:35;;;;;;;19.27;16.03;;;;;;;16.51;100.00;100224.77;1714769;82;21207;-66
2021/11/08 07:44:04;;;;;;;17.13;14.17;;;;;;;16.52;100.00;100224.28;1713849;81;21153;-75
2021/11/08 07:46:32;;;;;;;19.77;15.80;;;;;;;16.53;100.00;100219.30;1712501;82;22417;-76
2021/11/08 07:48:59;;;;;;;22.97;16.53;;;;;;;16.36;100.00;100210.41;1712197;82;21411;-64
2021/11/08 07:51:25;;;;;;;19.47;15.20;;;;;;;16.43;100.00;100208.50;1709869;82;21506;-64
2021/11/08 07:53:52;;;;;;;20.80;15.90;;;;;;;16.21;100.00;100215.56;1711463;81;21215;-65
2021/11/08 07:56:20;;;;;;;18.90;14.80;;;;;;;16.27;100.00;100211.23;1716330;82;21085;-66
2021/11/08 07:58:48;;;;;;;22.57;16.60;;;;;;;16.30;100.00;100212.11;1715760;81;22562;-79
2021/11/08 08:01:16;;;;;;;21.13;16.27;;;;;;;16.29;100.00;100219.20;1714283;82;21249;-65
2021/11/08 08:03:43;;;;;;;19.00;15.33;;;;;;;16.50;100.00;100225.00;1707742;82;22707;-65
2021/11/08 08:06:10;;;;;;;19.63;15.60;;;;;;;16.62;100.00;100216.63;1702186;82;21272;-76
2021/11/08 08:08:37;;;;;;;19.77;16.20;;;;;;;16.88;100.00;100209.42;1700306;82;21213;-67
2021/11/08 08:11:06;;;;;;;20.20;16.33;;;;;;;16.82;100.00;100202.42;1702860;82;21278;-66
2021/11/08 08:13:34;;;;;;;20.10;15.60;;;;;;;16.75;100.00;100208.59;1705337;82;21376;-68
2021/11/08 08:16:04;;;;;;;20.00;15.17;;;;;;;16.72;100.00;100197.17;1703358;82;21473;-79
2021/11/08 08:18:33;;;;;;;21.67;17.23;;;;;;;16.66;100.00;100192.79;1706156;82;21290;-64
2021/11/08 08:21:00;;;;;;;21.27;16.10;;;;;;;16.87;100.00;100184.14;1708964;82;21262;-65
2021/11/08 08:23:27;;;;;;;21.23;17.60;;;;;;;17.05;100.00;100176.16;1708387;82;22923;-64
2021/11/08 08:25:55;;;;;;;21.20;16.63;;;;;;;17.09;100.00;100177.83;1706886;82;21787;-64
2021/11/08 08:28:22;;;;;;;20.67;15.80;;;;;;;17.13;100.00;100176.34;1656878;83;21446;-72
2021/11/08 08:30:48;;;;;;;22.40;16.60;;;;;;;17.30;100.00;100171.97;1669450;83;21358;-70
2021/11/08 08:33:15;;;;;;;20.47;15.60;;;;;;;17.29;100.00;100182.23;1657909;85;22059;-67
2021/11/08 08:35:42;;;;;;;20.10;15.40;;;;;;;17.39;100.00;100184.31;1671076;83;21286;-66
2021/11/08 08:38:12;;;;;;;20.30;15.30;;;;;;;17.54;100.00;100176.73;1661606;85;21568;-75
2021/11/08 08:40:39;;;;;;;16.77;13.38;;;;;;;17.77;100.00;100183.84;1667377;83;21998;-67
2021/11/08 08:43:06;;;;;;;16.03;13.70;;;;;;;18.09;100.00;100174.98;1656752;85;21156;-66
2021/11/08 08:45:36;;;;;;;19.13;14.57;;;;;;;18.02;100.00;100180.11;1658756;85;21349;-67
2021/11/08 08:48:05;;;;;;;16.97;13.90;;;;;;;17.99;100.00;100173.45;1707583;82;21282;-76
2021/11/08 08:50:31;;;;;;;16.60;12.70;;;;;;;18.08;100.00;100174.70;1708706;82;21516;-67
2021/11/08 08:52:58;;;;;;;15.27;12.80;;;;;;;18.08;100.00;100174.70;1707366;82;21324;-75
2021/11/08 08:55:25;;;;;;;17.37;14.87;;;;;;;18.18;100.00;100172.27;1705297;82;21922;-69
2021/11/08 08:57:53;;;;;;;15.80;12.97;;;;;;;18.45;100.00;100183.06;1706686;82;22089;-66
2021/11/08 09:00:21;;;;;;;18.30;14.30;;;;;;;18.38;100.00;100181.61;1706527;82;21713;-67
2021/11/08 09:02:53;;;;;;;15.63;12.57;;;;;;;18.44;100.00;100181.96;1703263;82;23038;-75
2021/11/08 09:05:21;;;;;;;15.60;12.77;;;;;;;18.44;100.00;100181.96;1708387;82;21812;-67
2021/11/08 09:07:50;;;;;;;15.13;12.67;;;;;;;18.64;100.00;100178.38;1708380;82;21722;-66
2021/11/08 09:10:17;;;;;;;16.70;12.93;;;;;;;18.34;100.00;100173.88;1706828;82;21661;-65
2021/11/08 09:12:44;;;;;;;16.50;12.27;;;;;;;18.34;100.00;100172.04;1705056;82;22214;-69
2021/11/08 09:15:10;;;;;;;14.10;12.27;;;;;;;18.48;100.00;100179.13;1704709;82;21782;-68
2021/11/08 09:17:37;;;;;;;16.07;11.87;;;;;;;18.53;100.00;100177.92;1705538;82;21582;-66
2021/11/08 09:20:06;;;;;;;13.27;11.10;;;;;;;18.69;100.00;100173.70;1704589;84;21689;-71
2021/11/08 09:22:33;;;;;;;14.53;11.00;;;;;;;18.77;100.00;100166.73;1703820;84;21578;-66
2021/11/08 09:25:00;;;;;;;14.13;11.00;;;;;;;18.77;100.00;100166.73;1703973;82;22042;-71
2021/11/08 09:27:26;;;;;;;12.27;10.00;;;;;;;18.75;100.00;100157.44;1704677;84;21691;-67
2021/11/08 09:29:53;;;;;;;12.37;9.40;;;;;;;18.12;100.00;100158.69;1705276;82;21728;-67
2021/11/08 09:32:19;;;;;;;11.27;7.67;;;;;;;18.58;100.00;100151.59;1704248;82;21636;-66
2021/11/08 09:34:48;;;;;;;8.60;7.40;;;;;;;18.56;100.00;100145.77;1705199;82;21642;-66
2021/11/08 09:37:17;;;;;;;9.33;7.57;;;;;;;18.67;100.00;100152.00;1705099;82;21614;-68
2021/11/08 09:39:43;;;;;;;8.60;7.10;;;;;;;18.73;100.00;100151.09;1704157;84;21676;-65
2021/11/08 09:42:13;;;;;;;9.53;7.57;;;;;;;18.99;100.00;100152.82;1705654;82;21790;-64
2021/11/08 09:44:40;;;;;;;9.77;7.60;;;;;;;18.99;100.00;100152.82;1704776;82;22358;-65
2021/11/08 09:47:07;;;;;;;10.10;7.43;;;;;;;19.10;100.00;100141.37;1704938;82;21634;-69
2021/11/08 09:49:35;;;;;;;8.53;7.23;;;;;;;18.82;100.00;100147.52;1703552;82;21082;-66
2021/11/08 09:52:04;;;;;;;8.90;6.37;;;;;;;18.87;100.00;100145.78;1701710;82;21670;-66
2021/11/08 09:54:33;;;;;;;8.80;7.13;;;;;;;19.27;100.00;100141.33;1703864;82;22205;-66
2021/11/08 09:57:00;;;;;;;9.77;7.63;;;;;;;19.43;100.00;100133.38;1707116;82;21690;-67
2021/11/08 09:59:29;;;;;;;9.87;7.93;;;;;;;19.45;100.00;100126.52;1704824;82;21792;-66
2021/11/08 10:01:56;;;;;;;10.10;7.63;;;;;;;19.67;100.00;100124.72;1661171;82;21677;-68
2021/11/08 10:04:23;;;;;;;11.03;8.40;;;;;;;19.23;100.00;100129.13;1704456;82;21640;-74
2021/11/08 10:06:50;;;;;;;9.90;7.93;;;;;;;19.08;100.00;100127.06;1705473;82;22580;-66
2021/11/08 10:09:22;;;;;;;9.23;7.73;;;;;;;19.17;100.00;100120.34;1704977;81;22353;-76
2021/11/08 10:11:49;;;;;;;9.43;7.87;;;;;;;19.38;100.00;100116.12;1702839;83;22091;-65
2021/11/08 10:14:16;;;;;;;10.67;8.80;;;;;;;19.38;100.00;100115.32;1702545;82;21077;-73
2021/11/08 10:16:43;;;;;;;12.43;8.87;;;;;;;19.24;100.00;100118.83;1671520;83;21022;-68
2021/11/08 10:19:12;;;;;;;9.93;8.20;;;;;;;19.53;100.00;100113.40;1656318;85;21595;-70
2021/11/08 10:21:46;;;;;;;10.47;8.43;;;;;;;19.73;100.00;100112.34;1670689;83;21672;-67
2021/11/08 10:24:20;;;;;;;10.33;8.20;;;;;;;19.80;100.00;100114.28;1645138;85;21076;-68
2021/11/08 10:26:47;;;;;;;10.37;8.90;;;;;;;20.11;100.00;100110.11;1669761;83;21676;-70
2021/11/08 10:29:19;;;;;;;10.47;8.53;;;;;;;20.14;100.00;100099.56;1647549;85;22383;-69
2021/11/08 10:31:48;;;;;;;11.63;8.00;;;;;;;20.14;100.00;100099.56;1669889;83;21004;-68
2021/11/08 10:34:16;;;;;;;10.67;7.83;;;;;;;20.26;100.00;100105.49;1642989;85;21136;-67
2021/11/08 10:36:45;;;;;;;11.80;9.17;;;;;;;20.19;100.00;100095.63;1670533;85;20929;-68
2021/11/08 10:39:12;;;;;;;14.50;11.00;;;;;;;20.36;100.00;100096.86;1658950;85;21118;-67
2021/11/08 10:41:43;;;;;;;9.63;7.57;;;;;;;20.59;100.00;100089.93;1671342;83;21143;-67
2021/11/08 10:44:18;;;;;;;17.40;15.53;;;;;;;20.60;100.00;100086.22;1648050;85;21047;-69
2021/11/08 10:46:49;;;;;;;12.53;10.43;;;;;;;20.49;100.00;100079.75;1656086;85;22587;-68
2021/11/08 10:49:19;;;;;;;10.68;8.63;;;;;;;20.32;100.00;100080.68;1657225;85;21560;-69
2021/11/08 10:51:50;;;;;;;9.70;7.60;;;;;;;20.57;100.00;100085.42;1662909;83;20968;-72
2021/11/08 10:54:24;;;;;;;10.15;7.40;;;;;;;20.85;100.00;100082.17;1657452;84;27336;-80
2021/11/08 10:57:00;;;;;;;10.50;7.33;;;;;;;20.83;100.00;100074.99;1672518;83;21174;-66
2021/11/08 10:59:42;;;;;;;14.20;9.93;;;;;;;20.72;100.00;100079.45;1672151;83;22506;-69
2021/11/08 11:02:07;;;;;;;11.30;8.70;;;;;;;20.81;100.00;100078.44;1667948;83;21068;-75
2021/11/08 11:04:46;;;;;;;11.13;9.20;;;;;;;21.14;100.00;100073.34;1659477;84;21099;-69
2021/11/08 11:07:23;;;;;;;9.20;7.30;;;;;;;21.35;100.00;100083.01;1669607;83;21074;-76
2021/11/08 11:09:53;;;;;;;9.13;7.10;;;;;;;21.32;100.00;100079.51;1660794;85;21050;-76
2021/11/08 11:12:25;;;;;;;9.40;7.35;;;;;;;21.41;100.00;100082.52;1665501;83;21063;-65
2021/11/08 11:15:09;;;;;;;9.87;7.50;;;;;;;21.22;100.00;100082.67;1668850;83;21564;-66
2021/11/08 11:17:48;;;;;;;9.17;6.77;;;;;;;21.38;100.00;100070.56;1672195;83;21138;-67
2021/11/08 11:20:21;;;;;;;8.40;6.20;;;;;;;21.47;100.00;100079.34;1670545;83;21639;-67
2021/11/08 11:23:04;;;;;;;9.60;6.40;;;;;;;21.38;100.00;100076.41;1655055;85;21015;-67
2021/11/08 11:25:31;;;;;;;9.17;7.23;;;;;;;21.56;100.00;100073.30;1669358;83;21140;-70
2021/11/08 11:28:01;;;;;;;7.93;6.47;;;;;;;21.48;100.00;100074.30;1654218;83;20935;-66
2021/11/08 11:30:32;;;;;;;9.53;5.87;;;;;;;21.79;100.00;100061.95;1638013;85;21446;-70
2021/11/08 11:33:15;;;;;;;9.87;6.20;;;;;;;21.81;100.00;100061.15;1673252;83;21564;-67
2021/11/08 11:35:55;;;;;;;8.93;6.20;;;;;;;21.86;100.00;100058.52;1665596;83;21034;-65
2021/11/08 11:38:25;;;;;;;12.23;8.87;;;;;;;21.98;100.00;100064.37;1656671;85;21100;-65
2021/11/08 11:41:00;;;;;;;12.13;9.93;;;;;;;21.36;100.00;100083.80;1671130;83;21098;-66
2021/11/08 11:43:33;;;;;;;9.77;6.50;;;;;;;21.31;100.00;100078.45;1655278;85;21272;-67
2021/11/08 11:46:00;;;;;;;9.53;7.43;;;;;;;21.37;100.00;100073.48;1667979;83;21584;-64
2021/11/08 11:48:30;;;;;;;9.63;6.97;;;;;;;21.74;100.00;100065.91;1640837;85;21162;-67
2021/11/08 11:50:57;;;;;;;9.30;6.93;;;;;;;21.60;100.00;100065.62;1670522;83;21141;-67
2021/11/08 11:53:26;;;;;;;10.03;6.17;;;;;;;21.45;100.00;100065.03;1668925;85;21038;-67
2021/11/08 11:55:53;;;;;;;9.17;7.00;;;;;;;21.43;100.00;100071.64;1657740;85;21490;-67
2021/11/08 11:58:20;;;;;;;8.83;6.77;;;;;;;21.29;100.00;100080.05;1671116;83;21600;-67
2021/11/08 12:00:50;;;;;;;9.90;5.93;;;;;;;21.44;100.00;100079.36;1658071;85;21182;-66
2021/11/08 12:03:17;;;;;;;9.50;7.07;;;;;;;21.57;100.00;100084.16;1673775;83;21144;-67
2021/11/08 12:05:45;;;;;;;9.90;7.77;;;;;;;21.67;100.00;100087.39;1676740;83;21604;-66
2021/11/08 12:08:13;;;;;;;10.30;7.87;;;;;;;21.70;100.00;100090.03;1679480;83;21042;-80
2021/11/08 12:10:50;;;;;;;8.73;6.73;;;;;;;21.79;100.00;100089.81;1683241;83;21016;-66
2021/11/08 12:13:24;;;;;;;10.40;7.00;;;;;;;21.71;100.00;100088.47;1657280;84;36832;-78
2021/11/08 12:15:50;;;;;;;9.10;6.80;;;;;;;21.34;100.00;100094.67;1682660;83;21132;-67
2021/11/08 12:18:19;;;;;;;8.47;6.30;;;;;;;21.09;100.00;100090.53;1657429;83;21612;-65
2021/11/08 12:20:52;;;;;;;7.17;5.43;;;;;;;21.31;100.00;100095.69;1680100;83;20994;-64
2021/11/08 12:23:27;;;;;;;8.20;5.50;;;;;;;21.34;100.00;100099.98;1659401;84;21118;-75
2021/11/08 12:25:54;;;;;;;7.93;5.53;;;;;;;21.21;100.00;100095.63;1679432;84;21562;-79
2021/11/08 12:28:25;;;;;;;8.70;6.10;;;;;;;21.11;100.00;100093.20;1682287;83;21189;-63
2021/11/08 12:31:03;;;;;;;9.55;5.97;;;;;;;21.09;100.00;100088.67;1678487;83;21118;-64
2021/11/08 12:33:36;;;;;;;8.90;6.70;;;;;;;20.75;100.00;100086.07;1677416;83;21094;-80
2021/11/08 12:36:16;;;;;;;10.33;7.23;;;;;;;20.70;100.00;100082.86;1679974;83;21133;-66
2021/11/08 12:38:47;;;;;;;9.23;7.90;;;;;;;21.03;100.00;100079.64;1681020;83;21022;-64
2021/11/08 12:41:17;;;;;;;9.70;7.97;;;;;;;21.09;100.00;100097.95;1680165;83;21791;-69
2021/11/08 12:43:56;;;;;;;8.20;6.50;;;;;;;21.28;100.00;100104.15;1681389;83;22251;-64
2021/11/08 12:46:23;;;;;;;8.80;7.13;;;;;;;20.40;100.00;100107.22;1677075;83;21404;-65
2021/11/08 12:48:51;;;;;;;8.90;6.60;;;;;;;20.11;100.00;100116.73;1680267;83;21477;-70